Terminal Aerodrome Forecast
Issued by NWS

Current Version | Previous Version | Text Only | Print | Product List | Glossary On
Versions: 1 2 3 4 5 6 7 8 9 10 11 12 13 14 15 16 17 18 19 20 21
000
FTUS43 KDDC 222343
TAFGCK
TAF
KGCK 222343Z 2300/2324 15017G24KT P6SM SCT200
     FM230400 14015G25KT 6SM BR OVC020
     FM230600 15016KT 5SM -DZ BR OVC008
     FM230800 15014KT 1/2SM -DZ FG OVC003
     FM231100 17013G21KT 1 1/2SM -DZ BR OVC003
     FM231500 18019G28KT 3SM BR OVC006
     FM231800 18022G32KT P6SM BKN035=

USA.gov is the U.S. government's official web portal to all federal, state and local government web resources and services.